createdAt,value
2023-05-19T00:00:58.724Z,101682.47
2023-05-19T00:03:27.885Z,101677.69
2023-05-19T00:08:50.734Z,101682.94
2023-05-19T00:11:17.091Z,101684.19
2023-05-19T00:13:43.456Z,101688.16
2023-05-19T00:16:09.939Z,101682.53
2023-05-19T00:18:39.151Z,101676.16
2023-05-19T00:23:49.311Z,101690.50
2023-05-19T00:26:15.685Z,101680.16
2023-05-19T00:28:42.045Z,101682.94
2023-05-19T00:31:08.399Z,101682.16
2023-05-19T00:33:34.805Z,101682.94
2023-05-19T00:38:57.532Z,101685.72
2023-05-19T00:41:23.906Z,101691.28
2023-05-19T00:43:53.060Z,101680.53
2023-05-19T00:46:22.229Z,101686.56
2023-05-19T00:48:48.610Z,101677.81
2023-05-19T00:53:58.969Z,101676.16
2023-05-19T00:56:28.162Z,101677.69
2023-05-19T00:58:57.315Z,101674.19
2023-05-19T01:01:23.723Z,101667.47
2023-05-19T01:03:53.020Z,101671.81
2023-05-19T01:09:06.296Z,101663.06
2023-05-19T01:11:32.623Z,101666.63
2023-05-19T01:13:58.943Z,101660.34
2023-05-19T01:16:25.359Z,101662.75
2023-05-19T01:18:54.523Z,101663.91
2023-05-19T01:24:04.620Z,101663.44
2023-05-19T01:26:30.988Z,101664.22
2023-05-19T01:28:57.342Z,101657.94
2023-05-19T01:31:23.789Z,101654.34
2023-05-19T01:33:50.241Z,101655.16
2023-05-19T01:39:10.353Z,101656.75
2023-05-19T01:41:36.717Z,101663.91
2023-05-19T01:44:03.147Z,101665.09
2023-05-19T01:46:29.667Z,101655.97
2023-05-19T01:48:58.861Z,101655.88
2023-05-19T01:54:09.414Z,101655.97
2023-05-19T01:56:35.757Z,101646.06
2023-05-19T01:59:02.115Z,101650.41
2023-05-19T02:01:28.536Z,101646.00
2023-05-19T02:03:54.944Z,101646.00
2023-05-19T02:06:21.386Z,101643.22
2023-05-19T02:08:47.763Z,101641.19
2023-05-19T02:11:14.145Z,101640.03
2023-05-19T02:13:40.552Z,101650.31
2023-05-19T02:16:06.983Z,101645.16
2023-05-19T02:18:33.356Z,101638.03
2023-05-19T02:20:59.780Z,101647.53
2023-05-19T02:23:26.164Z,101650.25
2023-05-19T02:25:52.542Z,101643.53
2023-05-19T02:28:18.941Z,101645.94
2023-05-19T02:30:45.296Z,101643.53
2023-05-19T02:33:11.731Z,101640.81
2023-05-19T02:35:38.111Z,101641.13
2023-05-19T02:38:04.518Z,101632.41
2023-05-19T02:40:31.151Z,101641.97
2023-05-19T02:42:57.745Z,101642.38
2023-05-19T02:45:24.110Z,101642.38
2023-05-19T02:47:50.594Z,101637.97
2023-05-19T02:50:16.970Z,101642.31
2023-05-19T02:52:43.361Z,101641.50
2023-05-19T02:55:09.728Z,101639.19
2023-05-19T02:57:36.094Z,101646.69
2023-05-19T03:00:02.464Z,101640.41
2023-05-19T03:02:28.972Z,101643.53
2023-05-19T03:04:55.428Z,101645.53
2023-05-19T03:07:21.817Z,101642.69
2023-05-19T03:12:42.161Z,101649.03
2023-05-19T03:15:08.507Z,101651.47
2023-05-19T03:17:34.915Z,101649.84
2023-05-19T03:20:01.321Z,101647.47
2023-05-19T03:22:27.677Z,101641.88
2023-05-19T03:27:37.754Z,101647.44
2023-05-19T03:30:06.325Z,101643.50
2023-05-19T03:32:33.155Z,101649.03
2023-05-19T03:34:59.602Z,101658.66
2023-05-19T03:37:25.968Z,101657.19
2023-05-19T03:42:46.112Z,101652.09
2023-05-19T03:45:12.468Z,101649.31
2023-05-19T03:47:38.914Z,101654.53
2023-05-19T03:50:05.408Z,101655.72
2023-05-19T03:52:31.762Z,101654.94
2023-05-19T03:57:41.844Z,101661.44
2023-05-19T04:00:08.202Z,101663.06
2023-05-19T04:02:34.615Z,101659.56
2023-05-19T04:05:01.060Z,101664.38
2023-05-19T04:07:27.416Z,101665.22
2023-05-19T04:12:37.576Z,101661.69
2023-05-19T04:15:03.987Z,101658.19
2023-05-19T04:17:30.359Z,101661.47
2023-05-19T04:19:56.742Z,101665.09
2023-05-19T04:22:23.100Z,101659.53
2023-05-19T04:27:33.323Z,101664.72
2023-05-19T04:29:59.675Z,101664.72
2023-05-19T04:32:26.136Z,101660.41
2023-05-19T04:34:52.564Z,101654.47
2023-05-19T04:37:18.972Z,101652.47
2023-05-19T04:42:29.081Z,101660.09
2023-05-19T04:44:55.508Z,101659.72
2023-05-19T04:47:22.009Z,101659.34
2023-05-19T04:49:48.382Z,101658.50
2023-05-19T04:52:14.760Z,101659.63
2023-05-19T04:57:25.140Z,101649.94
2023-05-19T04:59:51.527Z,101658.28
2023-05-19T05:02:18.011Z,101655.13
2023-05-19T05:04:46.385Z,101657.09
2023-05-19T05:07:15.596Z,101658.66
2023-05-19T05:09:41.985Z,101656.59
2023-05-19T05:12:09.278Z,101655.34
2023-05-19T05:14:36.662Z,101662.50
2023-05-19T05:17:05.011Z,101663.75
2023-05-19T05:19:31.728Z,101663.00
2023-05-19T05:21:59.084Z,101653.88
2023-05-19T05:24:25.573Z,101657.47
2023-05-19T05:26:52.955Z,101655.97
2023-05-19T05:29:19.342Z,101651.13
2023-05-19T05:31:46.019Z,101652.72
2023-05-19T05:34:13.539Z,101653.03
2023-05-19T05:36:40.253Z,101664.38
2023-05-19T05:39:06.946Z,101659.06
2023-05-19T05:41:33.423Z,101661.00
2023-05-19T05:43:59.840Z,101662.91
2023-05-19T05:46:26.346Z,101660.09
2023-05-19T05:48:52.867Z,101660.88
2023-05-19T05:51:21.172Z,101656.09
2023-05-19T05:53:50.383Z,101656.81
2023-05-19T05:56:16.870Z,101659.53
2023-05-19T05:58:44.133Z,101657.13
2023-05-19T06:01:10.520Z,101658.28
2023-05-19T06:03:36.951Z,101659.59
2023-05-19T06:06:03.480Z,101657.63
2023-05-19T06:08:29.975Z,101659.59
2023-05-19T06:10:56.348Z,101657.56
2023-05-19T06:13:22.712Z,101655.81
2023-05-19T06:15:49.116Z,101665.91
2023-05-19T06:18:16.368Z,101668.84
2023-05-19T06:20:42.718Z,101663.78
2023-05-19T06:23:11.013Z,101657.03
2023-05-19T06:25:40.236Z,101661.38
2023-05-19T06:30:51.397Z,101664.53
2023-05-19T06:33:20.629Z,101666.38
2023-05-19T06:35:47.191Z,101673.06
2023-05-19T06:38:13.652Z,101667.47
2023-05-19T06:40:42.887Z,101663.13
2023-05-19T06:45:56.667Z,101669.94
2023-05-19T06:48:25.848Z,101664.41
2023-05-19T06:50:52.314Z,101663.66
2023-05-19T06:53:18.763Z,101659.34
2023-05-19T06:55:58.170Z,101655.81
2023-05-19T07:01:09.871Z,101660.50
2023-05-19T07:03:36.347Z,101658.50
2023-05-19T07:06:03.201Z,101657.97
2023-05-19T07:08:30.447Z,101660.09
2023-05-19T07:10:56.831Z,101653.78
2023-05-19T07:16:07.047Z,101650.94
2023-05-19T07:18:33.540Z,101649.31
2023-05-19T07:21:00.057Z,101653.78
2023-05-19T07:23:26.601Z,101646.22
2023-05-19T07:25:53.124Z,101648.59
2023-05-19T07:31:03.526Z,101644.13
2023-05-19T07:33:30.020Z,101650.06
2023-05-19T07:35:56.548Z,101647.41
2023-05-19T07:38:23.085Z,101657.34
2023-05-19T07:40:50.559Z,101654.63
2023-05-19T07:46:01.912Z,101657.84
2023-05-19T07:48:28.418Z,101656.28
2023-05-19T07:50:55.827Z,101657.91
2023-05-19T07:53:22.301Z,101667.41
2023-05-19T07:55:49.764Z,101659.81
2023-05-19T08:01:01.278Z,101653.47
2023-05-19T08:03:28.812Z,101658.66
2023-05-19T08:05:55.599Z,101658.28
2023-05-19T08:08:22.100Z,101655.56
2023-05-19T08:10:49.436Z,101654.31
2023-05-19T08:16:00.076Z,101659.13
2023-05-19T08:18:27.585Z,101655.50
2023-05-19T08:20:54.876Z,101661.00
2023-05-19T08:23:21.332Z,101657.84
2023-05-19T08:25:47.887Z,101661.38
2023-05-19T08:28:16.205Z,101657.09
2023-05-19T08:30:42.637Z,101656.41
2023-05-19T08:33:11.051Z,101661.66
2023-05-19T08:35:37.615Z,101662.81
2023-05-19T08:38:04.889Z,101666.78
2023-05-19T08:40:31.589Z,101653.25
2023-05-19T08:42:58.260Z,101657.25
2023-05-19T08:45:24.660Z,101655.66
2023-05-19T08:47:51.118Z,101657.31
2023-05-19T08:50:17.596Z,101656.09
2023-05-19T08:52:45.356Z,101656.81
2023-05-19T08:55:13.240Z,101657.66
2023-05-19T08:57:39.767Z,101655.66
2023-05-19T09:00:06.274Z,101653.63
2023-05-19T09:02:33.619Z,101656.81
2023-05-19T09:05:00.325Z,101650.53
2023-05-19T09:07:26.945Z,101656.81
2023-05-19T09:09:54.249Z,101644.06
2023-05-19T09:12:20.703Z,101653.63
2023-05-19T09:14:47.168Z,101656.44
2023-05-19T09:17:13.629Z,101655.66
2023-05-19T09:19:40.126Z,101666.00
2023-05-19T09:22:07.421Z,101660.34
2023-05-19T09:24:34.687Z,101661.91
2023-05-19T09:27:01.147Z,101659.03
2023-05-19T09:29:27.561Z,101660.56
2023-05-19T09:34:37.681Z,101654.69
2023-05-19T09:37:04.257Z,101650.69
2023-05-19T09:39:30.631Z,101654.31
2023-05-19T09:41:57.004Z,101655.56
2023-05-19T09:44:23.441Z,101649.44
2023-05-19T09:49:33.732Z,101654.63
2023-05-19T09:52:01.032Z,101659.75
2023-05-19T09:54:27.522Z,101655.78
2023-05-19T09:56:54.062Z,101654.94
2023-05-19T09:59:20.567Z,101650.56
2023-05-19T10:04:31.072Z,101648.69
2023-05-19T10:06:57.529Z,101651.06
2023-05-19T10:09:23.901Z,101646.06
2023-05-19T10:11:50.340Z,101647.69
2023-05-19T10:14:16.750Z,101648.53
2023-05-19T10:19:26.880Z,101646.22
2023-05-19T10:21:53.350Z,101650.06
2023-05-19T10:24:20.616Z,101641.28
2023-05-19T10:26:47.046Z,101634.09
2023-05-19T10:29:13.454Z,101633.53
2023-05-19T10:34:33.957Z,101629.75
2023-05-19T10:37:01.234Z,101627.03
2023-05-19T10:39:28.526Z,101639.28
2023-05-19T10:41:54.909Z,101637.66
2023-05-19T10:44:21.362Z,101629.28
2023-05-19T10:49:31.706Z,101624.44
2023-05-19T10:51:58.283Z,101625.88
2023-05-19T10:54:24.704Z,101627.03
2023-05-19T10:56:51.103Z,101629.44
2023-05-19T10:59:17.454Z,101626.31
2023-05-19T11:04:27.782Z,101622.25
2023-05-19T11:06:54.253Z,101621.88
2023-05-19T11:09:31.004Z,101628.75
2023-05-19T11:12:04.625Z,101628.81
2023-05-19T11:14:31.932Z,101624.78
2023-05-19T11:19:42.263Z,101630.22
2023-05-19T11:22:09.547Z,101631.00
2023-05-19T11:24:35.942Z,101627.13
2023-05-19T11:27:02.369Z,101633.19
2023-05-19T11:29:28.794Z,101630.91
2023-05-19T11:34:39.263Z,101629.75
2023-05-19T11:37:05.710Z,101634.03
2023-05-19T11:39:32.967Z,101629.66
2023-05-19T11:42:00.226Z,101630.78
2023-05-19T11:44:26.685Z,101626.88
2023-05-19T11:49:37.956Z,101628.59
2023-05-19T11:52:05.262Z,101626.22
2023-05-19T11:54:31.680Z,101633.81
2023-05-19T11:56:58.633Z,101631.09
2023-05-19T11:59:25.093Z,101627.06
2023-05-19T12:01:52.353Z,101637.69
2023-05-19T12:04:19.619Z,101632.94
2023-05-19T12:06:46.212Z,101638.91
2023-05-19T12:09:12.768Z,101635.31
2023-05-19T12:11:40.028Z,101629.44
2023-05-19T12:14:06.413Z,101631.84
2023-05-19T12:16:33.588Z,101633.34
2023-05-19T12:19:01.034Z,101635.66
2023-05-19T12:21:33.874Z,101632.97
2023-05-19T12:24:00.928Z,101631.69
2023-05-19T12:26:27.371Z,101631.16
2023-05-19T12:28:54.622Z,101624.72
2023-05-19T12:31:21.066Z,101626.34
2023-05-19T12:33:47.547Z,101629.53
2023-05-19T12:36:14.819Z,101627.13
2023-05-19T12:38:41.252Z,101623.03
2023-05-19T12:41:07.679Z,101632.91
2023-05-19T12:43:34.100Z,101633.28
2023-05-19T12:46:00.532Z,101628.91
2023-05-19T12:48:27.288Z,101626.19
2023-05-19T12:50:53.702Z,101625.81
2023-05-19T12:53:20.314Z,101621.78
2023-05-19T12:55:47.627Z,101616.31
2023-05-19T12:58:14.324Z,101613.91
2023-05-19T13:00:40.817Z,101618.25
2023-05-19T13:03:07.323Z,101614.63
2023-05-19T13:05:33.902Z,101617.03
2023-05-19T13:08:01.186Z,101622.91
2023-05-19T13:10:27.756Z,101621.63
2023-05-19T13:12:54.278Z,101616.09
2023-05-19T13:15:20.803Z,101624.25
2023-05-19T13:17:49.139Z,101617.47
2023-05-19T13:22:59.431Z,101624.97
2023-05-19T13:25:27.745Z,101628.59
2023-05-19T13:27:54.231Z,101625.53
2023-05-19T13:30:20.762Z,101623.03
2023-05-19T13:32:47.239Z,101620.72
2023-05-19T13:37:59.716Z,101615.97
2023-05-19T13:40:28.933Z,101615.94
2023-05-19T13:42:55.463Z,101623.81
2023-05-19T13:45:21.952Z,101620.75
2023-05-19T13:47:48.476Z,101622.00
2023-05-19T13:53:01.612Z,101612.59
2023-05-19T13:55:28.199Z,101613.75
2023-05-19T13:57:54.757Z,101613.34
2023-05-19T14:00:21.386Z,101612.75
2023-05-19T14:02:50.775Z,101616.50
2023-05-19T14:08:04.596Z,101611.75
2023-05-19T14:10:31.555Z,101608.19
2023-05-19T14:13:28.921Z,101613.84
2023-05-19T14:15:44.710Z,101618.66
2023-05-19T14:18:11.299Z,101620.66
2023-05-19T14:23:21.719Z,101617.38
2023-05-19T14:25:49.137Z,101618.28
2023-05-19T14:28:16.423Z,101615.19
2023-05-19T14:30:43.277Z,101625.06
2023-05-19T14:33:09.773Z,101617.63
2023-05-19T14:38:23.201Z,101623.56
2023-05-19T14:40:52.411Z,101625.53
2023-05-19T14:43:19.679Z,101618.28
2023-05-19T14:45:46.218Z,101617.31
2023-05-19T14:48:14.637Z,101620.00
2023-05-19T14:53:35.100Z,101616.75
2023-05-19T14:56:01.655Z,101612.38
2023-05-19T14:58:29.278Z,101612.31
2023-05-19T15:00:56.026Z,101616.66
2023-05-19T15:03:24.549Z,101624.63
2023-05-19T15:08:35.081Z,101625.75
2023-05-19T15:11:03.437Z,101633.31
2023-05-19T15:13:29.992Z,101638.00
2023-05-19T15:16:08.347Z,101640.41
2023-05-19T15:18:41.777Z,101638.00
2023-05-19T15:23:53.862Z,101634.16
2023-05-19T15:26:20.395Z,101629.84
2023-05-19T15:28:48.735Z,101629.88
2023-05-19T15:31:15.277Z,101628.69
2023-05-19T15:33:42.692Z,101625.84
2023-05-19T15:38:53.375Z,101623.06
2023-05-19T15:41:20.814Z,101623.03
2023-05-19T15:43:48.214Z,101611.53
2023-05-19T15:46:14.755Z,101614.72
2023-05-19T15:48:41.260Z,101615.16
2023-05-19T15:54:01.560Z,101619.44
2023-05-19T15:56:28.056Z,101616.34
2023-05-19T15:58:54.527Z,101618.34
2023-05-19T16:01:21.067Z,101611.63
2023-05-19T16:03:47.786Z,101606.84
2023-05-19T16:06:17.090Z,101601.66
2023-05-19T16:08:43.555Z,101600.50
2023-05-19T16:11:10.199Z,101596.53
2023-05-19T16:13:36.691Z,101602.47
2023-05-19T16:16:03.277Z,101607.63
2023-05-19T16:18:29.800Z,101603.91
2023-05-19T16:20:57.201Z,101603.56
2023-05-19T16:23:24.555Z,101606.81
2023-05-19T16:25:51.094Z,101600.50
2023-05-19T16:28:17.579Z,101610.81
2023-05-19T16:30:44.119Z,101607.63
2023-05-19T16:33:11.636Z,101604.44
2023-05-19T16:35:38.235Z,101600.13
2023-05-19T16:38:04.748Z,101598.13
2023-05-19T16:40:32.550Z,101595.72
2023-05-19T16:42:59.247Z,101597.72
2023-05-19T16:45:26.686Z,101599.03
2023-05-19T16:47:54.161Z,101606.28
2023-05-19T16:50:20.699Z,101602.75
2023-05-19T16:52:48.106Z,101598.38
2023-05-19T16:55:14.599Z,101604.75
2023-05-19T16:57:41.904Z,101606.34
2023-05-19T17:00:08.368Z,101600.78
2023-05-19T17:02:34.888Z,101598.81
2023-05-19T17:05:01.500Z,101602.38
2023-05-19T17:07:27.955Z,101596.81
2023-05-19T17:12:41.114Z,101600.41
2023-05-19T17:15:08.433Z,101597.63
2023-05-19T17:17:34.936Z,101601.59
2023-05-19T17:20:02.259Z,101598.44
2023-05-19T17:22:30.270Z,101600.03
2023-05-19T17:27:45.808Z,101590.88
2023-05-19T17:30:14.241Z,101595.28
2023-05-19T17:32:42.729Z,101593.66
2023-05-19T17:35:12.083Z,101598.44
2023-05-19T17:37:41.312Z,101606.41
2023-05-19T17:42:51.892Z,101601.22
2023-05-19T17:45:20.196Z,101597.25
2023-05-19T17:47:46.751Z,101600.84
2023-05-19T17:50:15.106Z,101598.84
2023-05-19T17:52:41.695Z,101601.63
2023-05-19T17:55:08.184Z,101597.25
2023-05-19T17:57:34.730Z,101601.63
2023-05-19T18:00:03.953Z,101605.59
2023-05-19T18:02:31.310Z,101603.63
2023-05-19T18:04:57.911Z,101601.63
2023-05-19T18:07:24.400Z,101605.22
2023-05-19T18:12:37.513Z,101604.03
2023-05-19T18:15:05.871Z,101607.19
2023-05-19T18:17:34.329Z,101609.59
2023-05-19T18:20:03.595Z,101602.44
2023-05-19T18:22:30.100Z,101608.00
2023-05-19T18:27:44.348Z,101609.19
2023-05-19T18:30:12.665Z,101613.56
2023-05-19T18:32:41.032Z,101611.56
2023-05-19T18:35:09.389Z,101618.34
2023-05-19T18:37:35.876Z,101621.91
2023-05-19T18:42:49.069Z,101626.31
2023-05-19T18:45:15.619Z,101628.28
2023-05-19T18:47:44.939Z,101628.28
2023-05-19T18:50:13.293Z,101629.88
2023-05-19T18:52:41.684Z,101626.31
2023-05-19T18:57:53.962Z,101627.47
2023-05-19T19:00:22.280Z,101633.03
2023-05-19T19:02:50.658Z,101636.63
2023-05-19T19:05:17.994Z,101641.41
2023-05-19T19:07:44.534Z,101640.59
2023-05-19T19:12:57.693Z,101641.41
2023-05-19T19:15:24.141Z,101650.53
2023-05-19T19:17:50.982Z,101640.22
2023-05-19T19:20:17.557Z,101650.53
2023-05-19T19:22:44.107Z,101641.41
2023-05-19T19:28:26.367Z,101650.53
2023-05-19T19:30:54.713Z,101646.16
2023-05-19T19:33:21.186Z,101646.97
2023-05-19T19:35:48.489Z,101654.53
2023-05-19T19:38:15.022Z,101653.72
2023-05-19T19:43:27.513Z,101648.16
2023-05-19T19:45:54.042Z,101656.09
2023-05-19T19:48:20.500Z,101658.03
2023-05-19T19:50:47.824Z,101654.06
2023-05-19T19:53:14.366Z,101656.09
2023-05-19T19:58:24.722Z,101656.94
2023-05-19T20:00:52.081Z,101664.84
2023-05-19T20:03:18.679Z,101667.19
2023-05-19T20:05:46.187Z,101670.28
2023-05-19T20:08:14.134Z,101664.25
2023-05-19T20:13:26.254Z,101665.88
2023-05-19T20:15:53.781Z,101657.47
2023-05-19T20:18:21.336Z,101659.44
2023-05-19T20:20:48.786Z,101665.06
2023-05-19T20:23:15.296Z,101659.94
2023-05-19T20:25:51.035Z,101661.06
2023-05-19T20:28:28.272Z,101659.88
2023-05-19T20:30:54.781Z,101663.09
2023-05-19T20:33:21.307Z,101660.25
2023-05-19T20:35:48.746Z,101672.50
2023-05-19T20:38:15.254Z,101664.91
2023-05-19T20:40:41.788Z,101667.25
2023-05-19T20:43:09.249Z,101673.94
2023-05-19T20:45:36.830Z,101660.81
2023-05-19T20:48:03.512Z,101663.63
2023-05-19T20:50:31.010Z,101662.03
2023-05-19T20:52:57.605Z,101667.94
2023-05-19T20:55:24.966Z,101665.91
2023-05-19T20:57:51.439Z,101661.97
2023-05-19T21:00:17.893Z,101666.31
2023-05-19T21:02:45.235Z,101663.53
2023-05-19T21:05:12.615Z,101665.06
2023-05-19T21:07:39.104Z,101667.47
2023-05-19T21:10:06.409Z,101666.31
2023-05-19T21:12:32.849Z,101666.69
2023-05-19T21:14:59.378Z,101677.88
2023-05-19T21:17:25.893Z,101679.44
2023-05-19T21:19:52.467Z,101671.31
2023-05-19T21:22:20.828Z,101674.47
2023-05-19T21:24:48.100Z,101661.84
2023-05-19T21:27:15.384Z,101668.53
2023-05-19T21:29:42.718Z,101667.41
2023-05-19T21:32:11.073Z,101672.50
2023-05-19T21:34:38.365Z,101662.97
2023-05-19T21:37:05.660Z,101661.38
2023-05-19T21:39:32.945Z,101660.50
2023-05-19T21:41:59.483Z,101673.19
2023-05-19T21:47:20.182Z,101671.56
2023-05-19T21:49:46.723Z,101665.66
2023-05-19T21:52:13.244Z,101660.16
2023-05-19T21:54:39.728Z,101660.59
2023-05-19T21:57:07.045Z,101661.38
2023-05-19T22:02:17.462Z,101657.03
2023-05-19T22:04:43.994Z,101659.44
2023-05-19T22:07:10.429Z,101662.22
2023-05-19T22:09:38.775Z,101664.63
2023-05-19T22:12:05.304Z,101657.47
2023-05-19T22:17:17.529Z,101661.47
2023-05-19T22:19:43.970Z,101667.03
2023-05-19T22:22:14.595Z,101661.09
2023-05-19T22:24:41.302Z,101665.09
2023-05-19T22:27:09.604Z,101666.66
2023-05-19T22:32:21.913Z,101658.75
2023-05-19T22:34:50.254Z,101658.75
2023-05-19T22:37:18.616Z,101661.53
2023-05-19T22:39:46.906Z,101666.66
2023-05-19T22:42:13.357Z,101666.72
2023-05-19T22:47:26.815Z,101665.56
2023-05-19T22:49:54.828Z,101662.78
2023-05-19T22:52:23.932Z,101671.50
2023-05-19T22:54:50.385Z,101675.06
2023-05-19T22:57:16.895Z,101676.69
2023-05-19T23:02:30.954Z,101667.56
2023-05-19T23:04:59.298Z,101667.56
2023-05-19T23:07:25.766Z,101669.91
2023-05-19T23:09:52.228Z,101673.13
2023-05-19T23:12:18.735Z,101661.19
2023-05-19T23:17:29.921Z,101664.78
2023-05-19T23:19:58.242Z,101664.41
2023-05-19T23:22:25.521Z,101658.03
2023-05-19T23:24:52.824Z,101660.84
2023-05-19T23:27:21.156Z,101657.25
2023-05-19T23:32:35.442Z,101665.22
2023-05-19T23:35:01.917Z,101664.78
2023-05-19T23:37:28.331Z,101659.66
2023-05-19T23:39:54.776Z,101661.63
2023-05-19T23:42:22.088Z,101659.28
2023-05-19T23:47:35.233Z,101650.13
2023-05-19T23:50:04.505Z,101656.06
2023-05-19T23:52:30.928Z,101652.09
2023-05-19T23:55:00.166Z,101654.09
2023-05-19T23:57:26.642Z,101656.88
